createdAt,value
2023-01-23T00:01:07.586Z,83.01
2023-01-23T00:03:34.262Z,79.98
2023-01-23T00:06:02.772Z,79.06
2023-01-23T00:08:29.674Z,80.77
2023-01-23T00:10:56.137Z,80.11
2023-01-23T00:13:22.659Z,78.43
2023-01-23T00:15:49.198Z,80.79
2023-01-23T00:18:15.929Z,84.81
2023-01-23T00:20:42.568Z,82.29
2023-01-23T00:23:10.860Z,80.74
2023-01-23T00:25:37.365Z,82.06
2023-01-23T00:28:04.009Z,79.14
2023-01-23T00:30:30.403Z,77.86
2023-01-23T00:32:56.898Z,79.68
2023-01-23T00:35:23.418Z,79.37
2023-01-23T00:37:49.874Z,79.17
2023-01-23T00:40:16.400Z,80.43
2023-01-23T00:42:42.860Z,78.71
2023-01-23T00:45:09.562Z,76.36
2023-01-23T00:47:35.984Z,78.44
2023-01-23T00:50:02.453Z,79.01
2023-01-23T00:52:29.345Z,81.52
2023-01-23T00:54:55.839Z,77.11
2023-01-23T00:57:22.319Z,74.95
2023-01-23T00:59:48.789Z,75.92
2023-01-23T01:02:15.242Z,75.19
2023-01-23T01:04:41.661Z,75.81
2023-01-23T01:07:08.110Z,75.92
2023-01-23T01:09:34.563Z,77.24
2023-01-23T01:12:01.029Z,76.01
2023-01-23T01:14:27.436Z,80.08
2023-01-23T01:16:53.872Z,81.99
2023-01-23T01:19:20.296Z,78.23
2023-01-23T01:21:47.259Z,75.82
2023-01-23T01:24:13.733Z,78.29
2023-01-23T01:26:40.573Z,74.63
2023-01-23T01:29:07.092Z,77.32
2023-01-23T01:31:33.737Z,75.95
2023-01-23T01:34:00.267Z,76.43
2023-01-23T01:36:27.454Z,77.60
2023-01-23T01:38:53.983Z,74.62
2023-01-23T01:41:20.539Z,77.86
2023-01-23T01:43:47.076Z,78.07
2023-01-23T01:46:24.245Z,77.32
2023-01-23T01:49:11.290Z,76.39
2023-01-23T01:52:10.372Z,75.77
2023-01-23T01:54:39.594Z,75.35
2023-01-23T01:57:25.657Z,77.94
2023-01-23T02:00:00.687Z,76.47
2023-01-23T02:02:38.878Z,76.38
2023-01-23T02:05:12.102Z,75.00
2023-01-23T02:08:14.729Z,74.58
2023-01-23T02:10:42.246Z,81.21
2023-01-23T02:13:39.667Z,80.63
2023-01-23T02:16:07.735Z,79.13
2023-01-23T02:18:36.965Z,81.37
2023-01-23T02:21:06.950Z,82.74
2023-01-23T02:23:42.819Z,84.01
2023-01-23T02:26:17.306Z,83.87
2023-01-23T02:28:52.329Z,82.16
2023-01-23T02:31:19.304Z,80.72
2023-01-23T02:33:51.341Z,82.95
2023-01-23T02:36:20.318Z,78.48
2023-01-23T02:38:51.042Z,76.69
2023-01-23T02:41:25.798Z,81.55
2023-01-23T02:43:54.637Z,79.70
2023-01-23T02:46:21.110Z,82.56
2023-01-23T02:48:48.440Z,83.71
2023-01-23T02:51:17.073Z,83.32
2023-01-23T02:53:44.190Z,85.90
2023-01-23T02:56:10.823Z,85.01
2023-01-23T02:58:55.719Z,83.53
2023-01-23T03:01:24.011Z,83.73
2023-01-23T03:03:51.671Z,84.59
2023-01-23T03:06:18.180Z,82.72
2023-01-23T03:08:47.798Z,84.32
2023-01-23T03:11:16.902Z,84.20
2023-01-23T03:13:45.275Z,83.17
2023-01-23T03:16:11.754Z,83.85
2023-01-23T03:18:52.752Z,83.11
2023-01-23T03:21:20.455Z,83.69
2023-01-23T03:23:48.243Z,81.95
2023-01-23T03:26:15.347Z,85.89
2023-01-23T03:29:00.512Z,84.49
2023-01-23T03:31:27.021Z,82.66
2023-01-23T03:33:53.550Z,84.28
2023-01-23T03:36:20.988Z,84.74
2023-01-23T03:39:05.703Z,84.38
2023-01-23T03:41:32.295Z,82.92
2023-01-23T03:43:58.676Z,80.36
2023-01-23T03:46:25.104Z,80.46
2023-01-23T03:48:51.644Z,80.22
2023-01-23T03:51:18.115Z,80.44
2023-01-23T03:53:44.591Z,78.27
2023-01-23T03:56:11.045Z,77.76
2023-01-23T03:58:37.496Z,80.32
2023-01-23T04:01:08.453Z,82.19
2023-01-23T04:03:35.368Z,84.11
2023-01-23T04:06:02.147Z,84.30
2023-01-23T04:08:29.473Z,82.45
2023-01-23T04:11:06.988Z,84.62
2023-01-23T04:13:33.513Z,86.70
2023-01-23T04:16:01.028Z,81.05
2023-01-23T04:18:27.904Z,79.88
2023-01-23T04:20:55.187Z,78.97
2023-01-23T04:23:21.809Z,80.43
2023-01-23T04:25:48.421Z,77.65
2023-01-23T04:28:14.897Z,76.73
2023-01-23T04:30:41.456Z,75.92
2023-01-23T04:33:08.151Z,75.87
2023-01-23T04:35:34.643Z,76.43
2023-01-23T04:38:01.095Z,74.53
2023-01-23T04:40:27.643Z,77.33
2023-01-23T04:42:54.058Z,76.76
2023-01-23T04:45:20.666Z,76.83
2023-01-23T04:47:47.091Z,76.17
2023-01-23T04:50:13.624Z,76.01
2023-01-23T04:52:40.007Z,75.24
2023-01-23T04:55:06.779Z,74.48
2023-01-23T04:57:33.232Z,79.64
2023-01-23T05:00:00.570Z,79.44
2023-01-23T05:02:27.297Z,75.65
2023-01-23T05:04:53.741Z,76.53
2023-01-23T05:07:20.210Z,76.02
2023-01-23T05:09:46.615Z,74.77
2023-01-23T05:12:13.063Z,76.67
2023-01-23T05:14:39.476Z,75.89
2023-01-23T05:17:05.907Z,75.81
2023-01-23T05:19:32.374Z,80.32
2023-01-23T05:21:58.784Z,76.52
2023-01-23T05:24:25.210Z,77.97
2023-01-23T05:26:51.598Z,79.43
2023-01-23T05:29:18.281Z,80.52
2023-01-23T05:31:44.705Z,76.42
2023-01-23T05:34:11.138Z,76.88
2023-01-23T05:36:37.543Z,75.92
2023-01-23T05:39:04.194Z,75.32
2023-01-23T05:41:30.583Z,76.49
2023-01-23T05:43:56.987Z,75.71
2023-01-23T05:46:23.715Z,77.67
2023-01-23T05:48:51.248Z,79.85
2023-01-23T05:51:18.768Z,77.30
2023-01-23T05:56:28.457Z,76.14
2023-01-23T05:58:54.890Z,78.65
2023-01-23T06:01:21.797Z,80.68
2023-01-23T06:03:48.320Z,82.25
2023-01-23T06:06:14.917Z,81.61
2023-01-23T06:08:41.419Z,80.22
2023-01-23T06:11:07.985Z,78.47
2023-01-23T06:13:34.423Z,79.63
2023-01-23T06:16:00.849Z,81.01
2023-01-23T06:18:27.329Z,80.98
2023-01-23T06:21:01.153Z,80.90
2023-01-23T06:23:28.469Z,82.77
2023-01-23T06:25:59.196Z,82.66
2023-01-23T06:28:25.626Z,81.00
2023-01-23T06:30:52.134Z,81.81
2023-01-23T06:33:18.575Z,82.80
2023-01-23T06:35:45.010Z,81.98
2023-01-23T06:38:11.415Z,82.41
2023-01-23T06:40:37.880Z,83.78
2023-01-23T06:43:04.304Z,83.39
2023-01-23T06:45:31.293Z,79.45
2023-01-23T06:47:57.677Z,80.04
2023-01-23T06:50:24.167Z,79.74
2023-01-23T06:52:50.559Z,79.99
2023-01-23T06:55:16.999Z,82.40
2023-01-23T06:57:43.432Z,80.90
2023-01-23T07:00:10.525Z,78.63
2023-01-23T07:02:38.147Z,83.78
2023-01-23T07:05:04.992Z,83.85
2023-01-23T07:07:31.436Z,82.77
2023-01-23T07:09:57.839Z,79.79
2023-01-23T07:12:24.305Z,79.05
2023-01-23T07:14:50.779Z,80.53
2023-01-23T07:17:17.270Z,83.66
2023-01-23T07:19:43.717Z,84.01
2023-01-23T07:22:10.122Z,82.41
2023-01-23T07:24:36.536Z,80.20
2023-01-23T07:27:02.982Z,77.92
2023-01-23T07:29:29.667Z,82.80
2023-01-23T07:31:58.587Z,84.71
2023-01-23T07:34:25.018Z,83.29
2023-01-23T07:36:51.442Z,83.92
2023-01-23T07:39:20.628Z,83.62
2023-01-23T07:41:57.328Z,84.19
2023-01-23T07:44:23.863Z,83.32
2023-01-23T07:47:17.088Z,85.24
2023-01-23T07:49:43.644Z,84.96
2023-01-23T07:52:10.140Z,83.38
2023-01-23T07:54:36.596Z,82.71
2023-01-23T07:57:03.058Z,85.71
2023-01-23T07:59:29.625Z,86.06
2023-01-23T08:01:56.119Z,81.50
2023-01-23T08:04:22.566Z,84.88
2023-01-23T08:06:49.265Z,83.70
2023-01-23T08:09:15.823Z,84.45
2023-01-23T08:11:42.342Z,80.79
2023-01-23T08:14:24.031Z,84.59
2023-01-23T08:16:52.228Z,85.33
2023-01-23T08:19:19.237Z,83.88
2023-01-23T08:21:46.248Z,82.44
2023-01-23T08:24:13.287Z,84.42
2023-01-23T08:26:41.645Z,82.46
2023-01-23T08:29:08.155Z,82.00
2023-01-23T08:31:36.013Z,79.52
2023-01-23T08:34:02.502Z,81.70
2023-01-23T08:36:29.056Z,84.54
2023-01-23T08:38:56.010Z,84.06
2023-01-23T08:41:23.429Z,84.44
2023-01-23T08:43:50.628Z,81.85
2023-01-23T08:46:17.063Z,80.24
2023-01-23T08:48:43.491Z,80.22
2023-01-23T08:51:14.068Z,81.93
2023-01-23T08:53:41.850Z,83.75
2023-01-23T08:56:17.228Z,84.18
2023-01-23T08:58:44.743Z,84.36
2023-01-23T09:01:16.596Z,83.63
2023-01-23T09:03:43.390Z,82.17
2023-01-23T09:06:11.661Z,83.57
2023-01-23T09:08:38.125Z,82.26
2023-01-23T09:11:06.399Z,80.29
2023-01-23T09:13:33.201Z,77.51
2023-01-23T09:16:00.144Z,77.62
2023-01-23T09:18:26.761Z,77.36
2023-01-23T09:20:54.293Z,80.21
2023-01-23T09:23:21.843Z,82.98
2023-01-23T09:25:48.703Z,87.04
2023-01-23T09:28:15.318Z,85.04
2023-01-23T09:30:42.268Z,85.29
2023-01-23T09:33:08.869Z,86.06
2023-01-23T09:35:35.489Z,87.49
2023-01-23T09:38:06.767Z,85.33
2023-01-23T09:40:49.518Z,86.62
2023-01-23T09:43:18.457Z,86.06
2023-01-23T09:45:58.580Z,87.05
2023-01-23T09:48:33.940Z,87.16
2023-01-23T09:51:26.923Z,81.56
2023-01-23T09:53:58.122Z,80.75
2023-01-23T09:56:41.625Z,84.45
2023-01-23T09:59:10.793Z,78.73
2023-01-23T10:01:37.762Z,78.15
2023-01-23T10:04:05.721Z,79.31
2023-01-23T10:07:02.035Z,80.21
2023-01-23T10:09:46.814Z,81.02
2023-01-23T10:12:35.124Z,78.95
2023-01-23T10:15:21.495Z,84.89
2023-01-23T10:18:02.714Z,86.12
2023-01-23T10:20:46.466Z,86.35
2023-01-23T10:23:18.707Z,87.90
2023-01-23T10:25:45.391Z,86.72
2023-01-23T10:28:17.476Z,83.46
2023-01-23T10:30:49.712Z,86.90
2023-01-23T10:33:17.963Z,87.03
2023-01-23T10:35:56.073Z,85.00
2023-01-23T10:38:26.818Z,81.61
2023-01-23T10:41:12.200Z,85.38
2023-01-23T10:43:40.584Z,82.66
2023-01-23T10:46:14.591Z,84.14
2023-01-23T10:48:47.264Z,86.58
2023-01-23T10:55:06.547Z,86.21
2023-01-23T10:57:48.933Z,84.88
2023-01-23T11:00:37.578Z,85.60
2023-01-23T11:03:22.525Z,87.40
2023-01-23T11:06:00.822Z,86.99
2023-01-23T11:08:38.918Z,85.37
2023-01-23T11:11:14.522Z,85.67
2023-01-23T11:17:47.042Z,83.60
2023-01-23T11:20:33.354Z,84.17
2023-01-23T11:23:17.720Z,85.11
2023-01-23T11:25:44.084Z,80.80
2023-01-23T11:28:30.688Z,84.18
2023-01-23T11:31:21.691Z,87.17
2023-01-23T11:34:03.958Z,84.57
2023-01-23T11:37:47.549Z,84.26
2023-01-23T11:40:19.324Z,83.97
2023-01-23T11:42:47.177Z,85.67
2023-01-23T11:45:30.426Z,83.60
2023-01-23T11:48:15.596Z,81.81
2023-01-23T11:50:56.076Z,83.52
2023-01-23T11:53:43.946Z,82.75
2023-01-23T11:56:50.161Z,84.50
2023-01-23T11:59:37.613Z,84.23
2023-01-23T12:02:13.153Z,80.88
2023-01-23T12:04:51.821Z,80.25
2023-01-23T12:07:21.105Z,79.70
2023-01-23T12:12:44.882Z,81.99
2023-01-23T12:15:14.098Z,81.96
2023-01-23T12:20:31.968Z,77.90
2023-01-23T12:23:13.438Z,79.14
2023-01-23T12:25:42.739Z,77.24
2023-01-23T12:28:42.045Z,83.73
2023-01-23T12:31:18.714Z,82.52
2023-01-23T12:33:48.078Z,79.50
2023-01-23T12:36:35.366Z,79.76
2023-01-23T12:39:37.672Z,79.21
2023-01-23T12:42:10.949Z,82.17
2023-01-23T12:44:44.301Z,81.30
2023-01-23T12:47:20.029Z,81.81
2023-01-23T12:49:56.067Z,82.08
2023-01-23T12:52:31.591Z,81.88
2023-01-23T12:55:06.141Z,77.60
2023-01-23T12:58:00.237Z,75.52
2023-01-23T13:01:10.323Z,80.49
2023-01-23T13:03:54.953Z,81.71
2023-01-23T13:06:58.818Z,79.99
2023-01-23T13:09:28.005Z,79.65
2023-01-23T13:12:22.664Z,76.13
2023-01-23T13:15:10.646Z,81.32
2023-01-23T13:17:40.085Z,79.81
2023-01-23T13:20:45.947Z,81.70
2023-01-23T13:23:22.744Z,78.33
2023-01-23T13:25:50.066Z,78.29
2023-01-23T13:28:44.700Z,76.49
2023-01-23T13:31:36.227Z,81.89
2023-01-23T13:34:24.666Z,81.71
2023-01-23T13:36:53.115Z,80.92
2023-01-23T13:39:28.208Z,82.41
2023-01-23T13:42:16.049Z,81.47
2023-01-23T13:45:24.241Z,78.59
2023-01-23T14:22:10.932Z,83.36
2023-01-23T14:24:46.780Z,83.34
2023-01-23T14:27:30.675Z,84.52
2023-01-23T14:30:14.299Z,83.87
2023-01-23T14:32:40.831Z,80.84
2023-01-23T14:35:24.391Z,80.63
2023-01-23T14:37:53.636Z,80.12
2023-01-23T14:40:27.678Z,81.44
2023-01-23T14:43:04.735Z,80.62
2023-01-23T14:45:33.606Z,81.70
2023-01-23T14:48:06.184Z,82.83
2023-01-23T14:50:33.588Z,82.62
2023-01-23T14:53:12.290Z,84.31
2023-01-23T14:55:41.566Z,83.90
2023-01-23T14:58:21.354Z,82.35
2023-01-23T15:00:49.121Z,83.25
2023-01-23T15:03:34.717Z,81.49
2023-01-23T15:06:05.897Z,82.16
2023-01-23T15:08:33.642Z,80.75
2023-01-23T15:11:01.794Z,81.84
2023-01-23T15:13:35.697Z,84.04
2023-01-23T15:16:05.909Z,82.98
2023-01-23T15:18:34.875Z,82.35
2023-01-23T15:21:06.545Z,81.83
2023-01-23T15:23:35.464Z,82.88
2023-01-23T15:26:12.649Z,83.83
2023-01-23T15:28:48.094Z,84.64
2023-01-23T15:31:33.551Z,81.18
2023-01-23T15:34:15.172Z,84.29
2023-01-23T15:36:59.989Z,82.36
2023-01-23T15:39:29.173Z,78.79
2023-01-23T15:41:59.580Z,82.13
2023-01-23T15:44:29.028Z,81.58
2023-01-23T15:46:56.750Z,86.97
2023-01-23T15:49:26.428Z,86.17
2023-01-23T15:51:55.675Z,84.58
2023-01-23T15:54:27.653Z,83.73
2023-01-23T15:57:06.612Z,84.76
2023-01-23T15:59:35.497Z,85.47
2023-01-23T16:02:01.996Z,85.84
2023-01-23T16:04:28.447Z,85.50
2023-01-23T16:06:55.030Z,84.45
2023-01-23T16:09:33.615Z,84.16
2023-01-23T16:12:00.854Z,85.84
2023-01-23T16:14:27.387Z,85.03
2023-01-23T16:16:55.309Z,80.07
2023-01-23T16:19:23.100Z,83.59
2023-01-23T16:21:59.397Z,79.20
2023-01-23T16:24:36.302Z,80.61
2023-01-23T16:27:03.915Z,82.95
2023-01-23T16:29:32.338Z,82.85
2023-01-23T16:32:01.106Z,84.40
2023-01-23T16:34:27.971Z,82.22
2023-01-23T16:36:57.938Z,85.81
2023-01-23T16:39:29.311Z,81.36
2023-01-23T16:41:55.924Z,83.91
2023-01-23T16:44:24.012Z,79.98
2023-01-23T16:46:52.196Z,80.96
2023-01-23T16:49:19.967Z,80.32
2023-01-23T16:51:56.252Z,79.91
2023-01-23T16:54:23.008Z,83.85
2023-01-23T16:56:53.438Z,78.74
2023-01-23T16:59:42.845Z,76.18
2023-01-23T17:02:20.081Z,80.71
2023-01-23T17:04:46.614Z,79.20
2023-01-23T17:07:17.384Z,79.48
2023-01-23T17:09:44.811Z,77.80
2023-01-23T17:12:17.808Z,78.09
2023-01-23T17:14:46.005Z,78.28
2023-01-23T17:17:16.960Z,76.54
2023-01-23T17:19:45.576Z,81.60
2023-01-23T17:22:24.795Z,82.57
2023-01-23T17:24:51.427Z,78.83
2023-01-23T17:27:17.955Z,78.76
2023-01-23T17:29:44.605Z,77.85
2023-01-23T17:32:41.911Z,77.67
2023-01-23T17:35:17.126Z,82.46
2023-01-23T17:37:43.675Z,82.23
2023-01-23T17:40:14.745Z,83.30
2023-01-23T17:42:42.156Z,84.26
2023-01-23T17:45:13.955Z,80.64
2023-01-23T17:47:43.395Z,82.80
2023-01-23T17:50:19.174Z,80.34
2023-01-23T17:52:46.847Z,82.49
2023-01-23T17:55:21.952Z,80.67
2023-01-23T17:57:49.357Z,77.56
2023-01-23T18:00:18.951Z,81.66
2023-01-23T18:02:48.381Z,82.10
2023-01-23T18:05:15.191Z,79.91
2023-01-23T18:07:53.023Z,83.22
2023-01-23T18:10:28.411Z,85.26
2023-01-23T18:13:24.490Z,82.79
2023-01-23T18:16:14.145Z,83.09
2023-01-23T18:18:41.827Z,82.88
2023-01-23T18:21:17.814Z,82.50
2023-01-23T18:23:44.822Z,84.07
2023-01-23T18:26:30.870Z,86.10
2023-01-23T18:29:18.713Z,83.83
2023-01-23T18:32:14.461Z,85.32
2023-01-23T18:34:46.777Z,83.53
2023-01-23T18:37:32.996Z,80.67
2023-01-23T18:40:14.521Z,78.98
2023-01-23T18:43:25.901Z,82.68
2023-01-23T18:45:56.882Z,84.59
2023-01-23T18:48:25.890Z,80.25
2023-01-23T18:51:01.700Z,80.76
2023-01-23T18:53:57.273Z,77.78
2023-01-23T18:56:42.616Z,80.18
2023-01-23T18:59:40.863Z,77.94
2023-01-23T19:02:23.875Z,79.20
2023-01-23T19:05:18.629Z,78.22
2023-01-23T19:07:46.203Z,75.61
2023-01-23T19:10:15.607Z,77.46
2023-01-23T19:13:02.592Z,80.14
2023-01-23T19:15:49.765Z,78.13
2023-01-23T19:18:40.033Z,77.40
2023-01-23T19:21:19.871Z,82.33
2023-01-23T19:23:52.136Z,78.38
2023-01-23T19:26:19.313Z,77.62
2023-01-23T19:28:45.995Z,78.64
2023-01-23T19:31:32.799Z,76.51
2023-01-23T19:34:00.545Z,81.89
2023-01-23T19:36:29.173Z,78.45
2023-01-23T19:39:06.595Z,78.16
2023-01-23T19:41:46.185Z,76.77
2023-01-23T19:44:14.601Z,84.33
2023-01-23T19:46:42.360Z,82.51
2023-01-23T19:49:12.156Z,79.00
2023-01-23T19:51:39.746Z,77.78
2023-01-23T19:54:09.376Z,80.52
2023-01-23T19:56:36.920Z,80.10
2023-01-23T19:59:03.420Z,81.49
2023-01-23T20:01:40.237Z,80.05
2023-01-23T20:04:12.001Z,84.94
2023-01-23T20:06:40.478Z,83.65
2023-01-23T20:09:08.278Z,83.24
2023-01-23T20:11:37.522Z,83.70
2023-01-23T20:14:03.964Z,81.19
2023-01-23T20:16:30.453Z,80.74
2023-01-23T20:18:56.950Z,81.46
2023-01-23T20:21:24.911Z,81.85
2023-01-23T20:23:52.204Z,77.59
2023-01-23T20:26:20.207Z,79.23
2023-01-23T20:28:48.715Z,81.19
2023-01-23T20:31:15.781Z,78.08
2023-01-23T20:33:42.590Z,83.00
2023-01-23T20:36:13.366Z,83.41
2023-01-23T20:38:40.189Z,84.56
2023-01-23T20:41:09.629Z,80.10
2023-01-23T20:43:36.269Z,81.07
2023-01-23T20:46:05.380Z,81.28
2023-01-23T20:48:36.133Z,83.24
2023-01-23T20:51:02.979Z,80.66
2023-01-23T20:53:32.132Z,80.08
2023-01-23T20:56:06.057Z,83.74
2023-01-23T20:58:52.173Z,78.66
2023-01-23T21:01:20.059Z,83.66
2023-01-23T21:03:48.197Z,81.04
2023-01-23T21:06:15.427Z,83.80
2023-01-23T21:08:42.398Z,82.53
2023-01-23T21:11:12.191Z,84.77
2023-01-23T21:13:38.928Z,83.28
2023-01-23T21:16:08.947Z,81.97
2023-01-23T21:18:37.298Z,78.38
2023-01-23T21:21:06.193Z,77.90
2023-01-23T21:23:33.504Z,83.03
2023-01-23T21:26:00.785Z,84.41
2023-01-23T21:28:29.912Z,85.93
2023-01-23T21:30:57.156Z,84.78
2023-01-23T21:33:24.254Z,84.41
2023-01-23T21:35:52.528Z,86.34
2023-01-23T21:38:19.501Z,84.20
2023-01-23T21:40:46.165Z,81.40
2023-01-23T21:43:12.583Z,81.75
2023-01-23T21:45:38.976Z,84.67
2023-01-23T21:48:05.789Z,81.55
2023-01-23T21:50:32.192Z,82.49
2023-01-23T21:52:58.605Z,82.33
2023-01-23T21:55:24.994Z,82.49
2023-01-23T21:57:51.413Z,85.67
2023-01-23T22:00:36.636Z,84.04
2023-01-23T22:03:03.641Z,84.53
2023-01-23T22:05:33.124Z,81.73
2023-01-23T22:07:59.542Z,83.19
2023-01-23T22:10:25.953Z,83.49
2023-01-23T22:12:59.060Z,82.28
2023-01-23T22:15:25.524Z,85.94
2023-01-23T22:17:51.982Z,82.41
2023-01-23T22:20:18.631Z,83.02
2023-01-23T22:22:45.236Z,78.43
2023-01-23T22:25:11.780Z,82.12
2023-01-23T22:27:38.176Z,81.14
2023-01-23T22:30:05.009Z,83.55
2023-01-23T22:32:33.549Z,84.99
2023-01-23T22:35:00.048Z,83.84
2023-01-23T22:37:26.452Z,84.91
2023-01-23T22:39:52.939Z,83.50
2023-01-23T22:42:20.875Z,84.46
2023-01-23T22:44:47.341Z,81.84
2023-01-23T22:47:13.827Z,84.67
2023-01-23T22:49:40.285Z,83.83
2023-01-23T22:52:08.544Z,84.27
2023-01-23T22:54:35.761Z,84.92
2023-01-23T22:57:02.179Z,84.29
2023-01-23T22:59:28.583Z,84.43
2023-01-23T23:01:55.000Z,85.75
2023-01-23T23:04:22.275Z,84.68
2023-01-23T23:06:48.692Z,84.75
2023-01-23T23:09:15.138Z,83.46
2023-01-23T23:11:41.705Z,82.92
2023-01-23T23:14:10.539Z,83.87
2023-01-23T23:16:37.000Z,84.71
2023-01-23T23:19:04.283Z,84.82
2023-01-23T23:21:36.703Z,84.46
2023-01-23T23:24:05.910Z,84.88
2023-01-23T23:26:33.119Z,84.06
2023-01-23T23:29:00.840Z,84.51
2023-01-23T23:31:27.449Z,84.49
2023-01-23T23:33:54.033Z,81.65
2023-01-23T23:36:20.750Z,84.11
2023-01-23T23:38:47.283Z,82.68
2023-01-23T23:41:17.681Z,84.35
2023-01-23T23:43:44.674Z,79.17
2023-01-23T23:46:12.265Z,76.41
2023-01-23T23:48:39.087Z,79.18
2023-01-23T23:51:07.661Z,83.10
2023-01-23T23:53:36.101Z,82.18
2023-01-23T23:56:02.879Z,82.62
2023-01-23T23:58:29.449Z,83.76
